createdAt,value
2018-09-13T00:00:24.592Z,81.83
2018-09-13T00:02:55.243Z,81.86
2018-09-13T00:05:25.943Z,82.17
2018-09-13T00:07:56.807Z,81.83
2018-09-13T00:10:27.532Z,82.44
2018-09-13T00:12:58.437Z,82.18
2018-09-13T00:15:29.240Z,82.17
2018-09-13T00:18:00.078Z,81.98
2018-09-13T00:20:30.925Z,81.64
2018-09-13T00:23:01.644Z,82.02
2018-09-13T00:25:32.588Z,82.00
2018-09-13T00:28:03.331Z,81.89
2018-09-13T00:30:34.008Z,81.93
2018-09-13T00:33:04.721Z,81.47
2018-09-13T00:35:35.481Z,81.48
2018-09-13T00:38:06.144Z,82.21
2018-09-13T00:40:36.988Z,82.04
2018-09-13T00:43:07.811Z,82.91
2018-09-13T00:45:38.601Z,83.45
2018-09-13T00:48:09.358Z,82.93
2018-09-13T00:50:40.162Z,82.82
2018-09-13T00:53:16.591Z,83.42
2018-09-13T00:55:47.450Z,83.54
2018-09-13T00:58:20.004Z,83.86
2018-09-13T01:00:51.012Z,83.95
2018-09-13T01:03:21.760Z,84.31
2018-09-13T01:05:52.678Z,84.57
2018-09-13T01:08:24.481Z,84.36
2018-09-13T01:10:55.339Z,84.27
2018-09-13T01:13:26.003Z,84.47
2018-09-13T01:15:56.703Z,85.08
2018-09-13T01:18:27.385Z,85.12
2018-09-13T01:20:58.196Z,85.08
2018-09-13T01:23:28.948Z,85.16
2018-09-13T01:26:00.173Z,85.10
2018-09-13T01:28:31.736Z,85.02
2018-09-13T01:31:03.805Z,84.60
2018-09-13T01:33:34.653Z,84.52
2018-09-13T01:36:05.408Z,85.42
2018-09-13T01:38:36.147Z,87.36
2018-09-13T01:41:07.028Z,87.49
2018-09-13T01:43:37.702Z,82.88
2018-09-13T01:46:08.528Z,82.07
2018-09-13T01:48:39.213Z,81.96
2018-09-13T01:51:10.732Z,82.38
2018-09-13T01:53:41.742Z,82.67
2018-09-13T01:56:12.559Z,82.58
2018-09-13T01:58:43.628Z,82.97
2018-09-13T02:01:14.403Z,82.76
2018-09-13T02:03:46.945Z,83.11
2018-09-13T02:06:20.422Z,82.82
2018-09-13T02:11:29.529Z,82.86
2018-09-13T02:14:00.345Z,82.99
2018-09-13T02:16:31.244Z,83.15
2018-09-13T02:19:02.028Z,83.53
2018-09-13T02:21:35.326Z,83.76
2018-09-13T02:24:06.140Z,83.54
2018-09-13T02:26:36.991Z,83.46
2018-09-13T02:29:08.012Z,83.71
2018-09-13T02:31:38.826Z,83.28
2018-09-13T02:34:09.574Z,81.88
2018-09-13T02:36:40.670Z,82.32
2018-09-13T02:39:11.827Z,82.49
2018-09-13T02:41:42.800Z,84.07
2018-09-13T02:44:13.512Z,82.81
2018-09-13T02:46:45.497Z,82.78
2018-09-13T02:49:16.343Z,83.37
2018-09-13T02:51:47.007Z,83.60
2018-09-13T02:54:17.843Z,82.95
2018-09-13T02:56:48.649Z,84.00
2018-09-13T02:59:19.436Z,84.79
2018-09-13T03:01:50.282Z,84.82
2018-09-13T03:04:21.084Z,84.77
2018-09-13T03:06:51.869Z,84.89
2018-09-13T03:09:22.686Z,84.69
2018-09-13T03:11:53.618Z,84.53
2018-09-13T03:14:24.379Z,84.89
2018-09-13T03:16:55.124Z,84.63
2018-09-13T03:19:25.908Z,84.84
2018-09-13T03:21:56.765Z,84.53
2018-09-13T03:24:27.668Z,85.35
2018-09-13T03:26:58.298Z,85.06
2018-09-13T03:29:29.061Z,84.89
2018-09-13T03:31:59.808Z,85.22
2018-09-13T03:34:30.620Z,85.07
2018-09-13T03:37:01.342Z,84.91
2018-09-13T03:39:32.083Z,85.10
2018-09-13T03:42:03.022Z,84.83
2018-09-13T03:44:33.717Z,84.69
2018-09-13T03:47:04.676Z,84.76
2018-09-13T03:49:35.298Z,84.84
2018-09-13T03:52:06.048Z,85.56
2018-09-13T03:54:36.913Z,84.40
2018-09-13T03:57:07.757Z,84.84
2018-09-13T03:59:38.598Z,85.22
2018-09-13T04:02:09.479Z,84.76
2018-09-13T04:04:40.228Z,84.46
2018-09-13T04:07:11.063Z,84.38
2018-09-13T04:09:41.810Z,84.63
2018-09-13T04:12:12.656Z,85.16
2018-09-13T04:14:43.365Z,84.99
2018-09-13T04:17:14.125Z,85.35
2018-09-13T04:19:46.038Z,85.22
2018-09-13T04:22:17.496Z,85.26
2018-09-13T04:24:48.172Z,85.31
2018-09-13T04:27:19.013Z,84.68
2018-09-13T04:29:49.737Z,85.04
2018-09-13T04:32:28.048Z,85.40
2018-09-13T04:34:58.829Z,84.50
2018-09-13T04:37:29.678Z,84.55
2018-09-13T04:40:00.403Z,84.52
2018-09-13T04:42:31.182Z,84.26
2018-09-13T04:45:01.928Z,84.80
2018-09-13T04:47:32.780Z,84.38
2018-09-13T04:50:03.794Z,84.84
2018-09-13T04:52:34.722Z,84.83
2018-09-13T04:55:05.566Z,84.28
2018-09-13T04:57:36.384Z,84.83
2018-09-13T05:00:07.348Z,84.97
2018-09-13T05:02:38.412Z,85.43
2018-09-13T05:05:09.549Z,84.88
2018-09-13T05:07:40.397Z,85.25
2018-09-13T05:10:11.247Z,85.73
2018-09-13T05:12:43.139Z,85.79
2018-09-13T05:15:14.929Z,85.63
2018-09-13T05:17:48.876Z,85.47
2018-09-13T05:20:22.979Z,85.52
2018-09-13T05:22:54.561Z,86.04
2018-09-13T05:25:30.646Z,85.99
2018-09-13T05:28:02.716Z,85.69
2018-09-13T05:30:34.646Z,86.04
2018-09-13T05:33:07.112Z,86.11
2018-09-13T05:35:39.173Z,86.05
2018-09-13T05:38:10.005Z,85.73
2018-09-13T05:40:47.376Z,85.69
2018-09-13T05:43:20.962Z,85.28
2018-09-13T05:45:56.504Z,85.69
2018-09-13T05:48:27.253Z,85.69
2018-09-13T05:50:58.747Z,85.14
2018-09-13T05:53:29.646Z,85.28
2018-09-13T05:56:01.711Z,85.87
2018-09-13T05:58:34.993Z,85.74
2018-09-13T06:01:06.397Z,86.04
2018-09-13T06:03:37.470Z,85.72
2018-09-13T06:06:09.224Z,86.15
2018-09-13T06:08:41.263Z,86.52
2018-09-13T06:11:12.037Z,85.91
2018-09-13T06:13:46.419Z,85.95
2018-09-13T06:16:17.148Z,86.31
2018-09-13T06:18:48.090Z,86.25
2018-09-13T06:21:18.808Z,86.41
2018-09-13T06:23:49.517Z,86.33
2018-09-13T06:26:20.345Z,86.64
2018-09-13T06:28:51.067Z,86.33
2018-09-13T06:31:22.009Z,86.29
2018-09-13T06:33:52.806Z,85.68
2018-09-13T06:36:23.615Z,85.50
2018-09-13T06:38:54.641Z,85.09
2018-09-13T06:41:29.034Z,85.50
2018-09-13T06:44:07.329Z,85.22
2018-09-13T06:46:38.135Z,85.45
2018-09-13T06:49:09.161Z,85.88
2018-09-13T06:54:42.798Z,84.54
2018-09-13T06:57:13.583Z,84.46
2018-09-13T06:59:44.416Z,84.38
2018-09-13T07:02:16.132Z,84.50
2018-09-13T07:04:49.777Z,84.64
2018-09-13T07:07:20.994Z,84.93
2018-09-13T07:09:51.722Z,84.99
2018-09-13T07:12:24.481Z,84.07
2018-09-13T07:14:55.237Z,84.99
2018-09-13T07:17:26.093Z,84.84
2018-09-13T07:19:57.234Z,84.38
2018-09-13T07:22:30.930Z,84.26
2018-09-13T07:25:02.896Z,85.01
2018-09-13T07:27:34.633Z,83.77
2018-09-13T07:30:06.013Z,84.59
2018-09-13T07:32:44.937Z,83.91
2018-09-13T07:35:15.865Z,84.69
2018-09-13T07:37:47.434Z,84.38
2018-09-13T07:40:18.571Z,84.48
2018-09-13T07:42:49.483Z,83.78
2018-09-13T07:45:20.261Z,83.86
2018-09-13T07:47:51.987Z,84.16
2018-09-13T07:50:23.174Z,84.22
2018-09-13T07:52:54.183Z,84.52
2018-09-13T07:55:25.974Z,84.82
2018-09-13T07:57:56.719Z,84.75
2018-09-13T08:00:27.534Z,84.21
2018-09-13T08:02:58.415Z,84.14
2018-09-13T08:05:29.503Z,83.77
2018-09-13T08:08:00.228Z,83.55
2018-09-13T08:10:31.016Z,83.95
2018-09-13T08:13:01.923Z,83.57
2018-09-13T08:15:32.678Z,84.15
2018-09-13T08:18:03.600Z,83.47
2018-09-13T08:20:34.392Z,83.24
2018-09-13T08:23:05.544Z,82.85
2018-09-13T08:25:54.902Z,82.75
2018-09-13T08:28:50.677Z,83.08
2018-09-13T08:31:52.311Z,82.23
2018-09-13T08:37:49.484Z,81.60
2018-09-13T08:40:36.509Z,82.23
2018-09-13T08:43:11.820Z,81.36
2018-09-13T08:45:43.199Z,81.21
2018-09-13T08:48:14.033Z,81.74
2018-09-13T08:50:45.140Z,80.62
2018-09-13T08:53:15.966Z,79.90
2018-09-13T08:55:47.930Z,79.57
2018-09-13T08:58:19.619Z,80.70
2018-09-13T09:00:51.953Z,81.32
2018-09-13T09:03:24.250Z,80.95
2018-09-13T09:05:55.759Z,81.03
2018-09-13T09:08:27.923Z,79.87
2018-09-13T09:11:02.025Z,78.99
2018-09-13T09:13:32.913Z,79.24
2018-09-13T09:16:05.288Z,79.23
2018-09-13T09:18:36.084Z,78.60
2018-09-13T09:21:10.268Z,79.37
2018-09-13T09:23:49.644Z,78.59
2018-09-13T09:26:22.335Z,77.80
2018-09-13T09:28:53.243Z,78.86
2018-09-13T09:31:31.283Z,80.12
2018-09-13T09:34:02.030Z,78.07
2018-09-13T09:36:32.880Z,77.69
2018-09-13T09:39:05.929Z,76.91
2018-09-13T09:41:36.862Z,75.37
2018-09-13T09:44:07.969Z,77.23
2018-09-13T09:46:39.157Z,75.41
2018-09-13T09:49:09.936Z,76.92
2018-09-13T09:51:48.741Z,76.42
2018-09-13T09:54:20.789Z,76.05
2018-09-13T09:56:51.603Z,76.24
2018-09-13T09:59:22.408Z,75.31
2018-09-13T10:01:59.299Z,74.99
2018-09-13T10:04:30.554Z,74.12
2018-09-13T10:07:01.470Z,74.29
2018-09-13T10:09:32.242Z,74.20
2018-09-13T10:12:03.066Z,73.56
2018-09-13T10:14:33.855Z,73.08
2018-09-13T10:17:10.672Z,73.75
2018-09-13T10:19:46.891Z,75.94
2018-09-13T10:22:22.659Z,74.06
2018-09-13T10:24:58.533Z,72.73
2018-09-13T10:27:34.427Z,72.48
2018-09-13T10:30:11.354Z,72.44
2018-09-13T10:32:47.268Z,71.69
2018-09-13T10:35:23.325Z,71.69
2018-09-13T10:37:59.303Z,70.68
2018-09-13T10:40:35.104Z,70.98
2018-09-13T10:43:10.949Z,69.71
2018-09-13T10:45:46.906Z,70.04
2018-09-13T10:48:22.820Z,69.07
2018-09-13T10:50:58.888Z,69.19
2018-09-13T10:53:29.765Z,66.33
2018-09-13T10:56:00.508Z,66.62
2018-09-13T10:58:31.481Z,66.79
2018-09-13T11:01:02.285Z,66.70
2018-09-13T11:03:33.034Z,66.29
2018-09-13T11:06:03.861Z,66.03
2018-09-13T11:08:34.715Z,66.81
2018-09-13T11:11:05.632Z,67.93
2018-09-13T11:13:43.256Z,68.29
2018-09-13T11:16:14.097Z,68.08
2018-09-13T11:18:44.851Z,68.35
2018-09-13T11:21:15.661Z,68.01
2018-09-13T11:23:47.805Z,68.26
2018-09-13T11:26:18.625Z,67.87
2018-09-13T11:28:49.444Z,68.55
2018-09-13T11:31:20.245Z,67.52
2018-09-13T11:33:51.025Z,67.04
2018-09-13T11:36:21.815Z,68.38
2018-09-13T11:38:54.657Z,68.59
2018-09-13T11:41:25.420Z,67.64
2018-09-13T11:43:58.017Z,66.36
2018-09-13T11:46:42.402Z,65.82
2018-09-13T11:49:14.395Z,64.44
2018-09-13T11:51:46.228Z,63.01
2018-09-13T11:54:16.945Z,60.69
2018-09-13T11:56:47.649Z,58.98
2018-09-13T11:59:18.353Z,56.08
2018-09-13T12:01:49.124Z,54.47
2018-09-13T12:04:19.917Z,54.52
2018-09-13T12:06:50.682Z,55.23
2018-09-13T12:09:21.650Z,55.97
2018-09-13T12:11:52.837Z,52.82
2018-09-13T12:14:23.595Z,52.88
2018-09-13T12:16:54.401Z,52.21
2018-09-13T12:19:25.229Z,52.29
2018-09-13T12:21:56.178Z,52.16
2018-09-13T12:24:26.890Z,51.13
2018-09-13T12:26:57.781Z,51.41
2018-09-13T12:29:28.917Z,52.77
2018-09-13T12:31:59.856Z,52.46
2018-09-13T12:34:30.643Z,51.71
2018-09-13T12:37:01.448Z,53.73
2018-09-13T12:39:33.265Z,54.88
2018-09-13T12:42:04.083Z,54.46
2018-09-13T12:44:35.027Z,55.19
2018-09-13T12:47:05.877Z,55.55
2018-09-13T12:49:37.061Z,56.20
2018-09-13T12:52:07.895Z,54.03
2018-09-13T12:54:38.667Z,55.68
2018-09-13T12:57:09.592Z,54.55
2018-09-13T12:59:40.860Z,53.94
2018-09-13T13:02:11.700Z,52.89
2018-09-13T13:04:42.500Z,51.73
2018-09-13T13:07:13.170Z,50.91
2018-09-13T13:09:43.935Z,50.63
2018-09-13T13:12:14.891Z,49.92
2018-09-13T13:14:45.830Z,49.36
2018-09-13T13:17:16.590Z,49.57
2018-09-13T13:19:47.519Z,49.09
2018-09-13T13:22:18.351Z,47.75
2018-09-13T13:24:49.080Z,45.92
2018-09-13T13:27:19.859Z,46.57
2018-09-13T13:29:50.613Z,47.68
2018-09-13T13:32:21.388Z,47.60
2018-09-13T13:34:52.100Z,47.25
2018-09-13T13:37:22.793Z,48.29
2018-09-13T13:39:53.564Z,48.43
2018-09-13T13:42:24.270Z,48.40
2018-09-13T13:44:54.967Z,48.56
2018-09-13T13:47:25.686Z,49.77
2018-09-13T13:49:56.405Z,50.56
2018-09-13T13:52:27.094Z,50.95
2018-09-13T13:54:57.960Z,51.31
2018-09-13T13:57:28.708Z,52.16
2018-09-13T13:59:59.487Z,52.88
2018-09-13T14:02:30.231Z,52.46
2018-09-13T14:05:01.238Z,53.32
2018-09-13T14:07:32.013Z,53.98
2018-09-13T14:10:02.781Z,54.46
2018-09-13T14:12:33.523Z,54.89
2018-09-13T14:15:04.274Z,54.66
2018-09-13T14:17:35.080Z,55.15
2018-09-13T14:20:05.984Z,55.13
2018-09-13T14:22:36.719Z,54.93
2018-09-13T14:25:08.280Z,55.15
2018-09-13T14:27:39.057Z,55.23
2018-09-13T14:30:10.361Z,54.95
2018-09-13T14:35:42.617Z,49.32
2018-09-13T14:40:58.991Z,48.70
2018-09-13T14:43:29.831Z,48.28
2018-09-13T14:46:00.877Z,47.01
2018-09-13T14:48:31.696Z,45.94
2018-09-13T14:51:03.055Z,45.64
2018-09-13T14:53:34.352Z,45.56
2018-09-13T14:56:05.095Z,45.97
2018-09-13T14:58:35.862Z,46.78
2018-09-13T15:01:06.830Z,46.87
2018-09-13T15:03:37.553Z,48.17
2018-09-13T15:06:09.037Z,47.08
2018-09-13T15:08:39.796Z,46.99
2018-09-13T15:11:10.543Z,48.17
2018-09-13T15:13:41.262Z,48.08
2018-09-13T15:16:11.976Z,48.26
2018-09-13T15:18:43.327Z,47.92
2018-09-13T15:21:14.103Z,47.99
2018-09-13T15:23:44.893Z,47.33
2018-09-13T15:26:15.712Z,47.71
2018-09-13T15:28:46.489Z,46.95
2018-09-13T15:31:17.328Z,45.91
2018-09-13T15:33:48.084Z,45.04
2018-09-13T15:36:18.813Z,43.28
2018-09-13T15:38:49.510Z,43.07
2018-09-13T15:41:20.217Z,42.96
2018-09-13T15:43:51.416Z,42.24
2018-09-13T15:46:22.164Z,41.80
2018-09-13T15:48:52.910Z,41.20
2018-09-13T15:51:23.662Z,41.38
2018-09-13T15:53:54.406Z,42.05
2018-09-13T15:56:25.184Z,41.99
2018-09-13T15:58:56.001Z,42.04
2018-09-13T16:01:26.734Z,41.83
2018-09-13T16:03:57.446Z,41.88
2018-09-13T16:06:28.264Z,42.29
2018-09-13T16:08:59.014Z,42.48
2018-09-13T16:11:29.745Z,42.95
2018-09-13T16:14:00.508Z,43.34
2018-09-13T16:16:32.820Z,43.52
2018-09-13T16:19:05.394Z,43.36
2018-09-13T16:21:36.427Z,42.85
2018-09-13T16:24:07.377Z,43.73
2018-09-13T16:26:38.786Z,44.66
2018-09-13T16:29:09.641Z,45.20
2018-09-13T16:31:40.453Z,44.38
2018-09-13T16:34:11.317Z,44.58
2018-09-13T16:36:47.303Z,44.79
2018-09-13T16:39:27.037Z,44.65
2018-09-13T16:42:03.225Z,45.03
2018-09-13T16:44:40.792Z,45.54
2018-09-13T16:47:17.277Z,45.87
2018-09-13T16:49:48.144Z,46.32
2018-09-13T16:52:19.806Z,46.50
2018-09-13T16:54:50.725Z,47.19
2018-09-13T16:57:21.593Z,48.56
2018-09-13T16:59:52.632Z,48.92
2018-09-13T17:02:23.655Z,49.58
2018-09-13T17:04:54.477Z,49.98
2018-09-13T17:07:25.390Z,50.75
2018-09-13T17:09:56.120Z,51.34
2018-09-13T17:12:26.878Z,51.15
2018-09-13T17:14:57.849Z,51.88
2018-09-13T17:17:28.756Z,52.27
2018-09-13T17:19:59.646Z,53.32
2018-09-13T17:22:30.461Z,52.84
2018-09-13T17:25:01.196Z,53.47
2018-09-13T17:27:31.992Z,54.20
2018-09-13T17:30:02.787Z,54.41
2018-09-13T17:32:33.647Z,54.94
2018-09-13T17:35:04.560Z,55.96
2018-09-13T17:37:35.254Z,55.90
2018-09-13T17:40:06.076Z,56.85
2018-09-13T17:42:36.792Z,57.18
2018-09-13T17:45:07.609Z,57.62
2018-09-13T17:47:38.417Z,58.07
2018-09-13T17:50:09.237Z,58.76
2018-09-13T17:52:39.897Z,58.96
2018-09-13T17:55:10.619Z,59.05
2018-09-13T17:57:41.412Z,59.59
2018-09-13T18:00:13.628Z,60.46
2018-09-13T18:02:44.407Z,61.11
2018-09-13T18:05:15.175Z,61.44
2018-09-13T18:07:45.979Z,61.57
2018-09-13T18:10:16.706Z,62.13
2018-09-13T18:12:47.530Z,61.86
2018-09-13T18:15:18.545Z,62.33
2018-09-13T18:17:49.627Z,63.11
2018-09-13T18:20:21.398Z,62.77
2018-09-13T18:22:52.276Z,63.58
2018-09-13T18:25:23.039Z,63.44
2018-09-13T18:27:53.836Z,64.24
2018-09-13T18:30:24.727Z,63.95
2018-09-13T18:32:55.487Z,64.71
2018-09-13T18:35:26.317Z,65.30
2018-09-13T18:37:57.098Z,65.32
2018-09-13T18:40:28.024Z,65.56
2018-09-13T18:42:58.821Z,65.23
2018-09-13T18:46:00.754Z,65.92
2018-09-13T18:48:31.564Z,66.47
2018-09-13T18:51:02.378Z,66.86
2018-09-13T18:53:33.189Z,66.90
2018-09-13T18:56:04.018Z,67.18
2018-09-13T18:58:35.023Z,67.73
2018-09-13T19:01:05.869Z,69.37
2018-09-13T19:03:36.576Z,68.31
2018-09-13T19:06:07.834Z,68.72
2018-09-13T19:08:38.580Z,68.25
2018-09-13T19:11:09.906Z,68.63
2018-09-13T19:13:40.650Z,69.19
2018-09-13T19:16:11.699Z,69.52
2018-09-13T19:18:42.432Z,69.64
2018-09-13T19:21:13.259Z,70.15
2018-09-13T19:23:43.960Z,70.27
2018-09-13T19:26:14.721Z,70.37
2018-09-13T19:28:45.421Z,70.49
2018-09-13T19:31:16.220Z,70.77
2018-09-13T19:33:47.213Z,71.04
2018-09-13T19:36:18.341Z,71.31
2018-09-13T19:38:49.540Z,71.89
2018-09-13T19:41:20.442Z,72.04
2018-09-13T19:43:52.127Z,71.78
2018-09-13T19:46:22.888Z,72.56
2018-09-13T19:48:53.644Z,73.00
2018-09-13T19:51:24.403Z,72.54
2018-09-13T19:53:56.241Z,73.00
2018-09-13T19:56:27.018Z,72.63
2018-09-13T19:58:58.226Z,72.96
2018-09-13T20:01:28.940Z,73.07
2018-09-13T20:03:59.847Z,73.17
2018-09-13T20:06:31.514Z,73.60
2018-09-13T20:09:09.798Z,73.32
2018-09-13T20:11:40.662Z,73.95
2018-09-13T20:14:11.499Z,74.05
2018-09-13T20:16:42.337Z,74.33
2018-09-13T20:19:13.176Z,74.60
2018-09-13T20:21:43.934Z,74.72
2018-09-13T20:24:14.768Z,75.33
2018-09-13T20:26:45.710Z,75.44
2018-09-13T20:29:16.588Z,75.25
2018-09-13T20:31:47.338Z,75.23
2018-09-13T20:34:18.287Z,75.42
2018-09-13T20:36:49.117Z,75.62
2018-09-13T20:39:19.943Z,75.79
2018-09-13T20:41:50.837Z,76.26
2018-09-13T20:44:21.513Z,76.73
2018-09-13T20:46:52.240Z,76.93
2018-09-13T20:49:22.994Z,76.68
2018-09-13T20:51:53.690Z,77.01
2018-09-13T20:54:24.444Z,76.64
2018-09-13T20:56:55.508Z,76.26
2018-09-13T20:59:26.309Z,76.78
2018-09-13T21:01:57.052Z,76.73
2018-09-13T21:04:27.827Z,76.88
2018-09-13T21:06:58.574Z,77.14
2018-09-13T21:09:29.305Z,76.64
2018-09-13T21:12:00.065Z,76.70
2018-09-13T21:14:30.838Z,77.14
2018-09-13T21:17:01.635Z,77.23
2018-09-13T21:19:33.097Z,76.98
2018-09-13T21:22:03.969Z,77.04
2018-09-13T21:24:34.832Z,77.59
2018-09-13T21:27:05.576Z,76.85
2018-09-13T21:29:36.490Z,77.08
2018-09-13T21:32:07.378Z,77.46
2018-09-13T21:34:38.140Z,77.81
2018-09-13T21:37:09.241Z,78.40
2018-09-13T21:39:40.003Z,78.66
2018-09-13T21:42:10.765Z,78.32
2018-09-13T21:44:41.575Z,78.16
2018-09-13T21:47:12.295Z,78.23
2018-09-13T21:49:43.081Z,78.30
2018-09-13T21:52:13.905Z,78.49
2018-09-13T21:54:44.670Z,78.67
2018-09-13T21:57:15.503Z,78.78
2018-09-13T21:59:46.300Z,78.80
2018-09-13T22:02:17.066Z,79.21
2018-09-13T22:04:48.043Z,79.06
2018-09-13T22:07:19.882Z,78.90
2018-09-13T22:09:50.712Z,79.34
2018-09-13T22:12:21.626Z,79.41
2018-09-13T22:14:52.422Z,79.41
2018-09-13T22:17:27.153Z,79.88
2018-09-13T22:19:57.825Z,79.80
2018-09-13T22:22:28.720Z,79.14
2018-09-13T22:24:59.481Z,79.58
2018-09-13T22:27:30.277Z,79.44
2018-09-13T22:30:00.997Z,79.32
2018-09-13T22:32:31.765Z,79.21
2018-09-13T22:35:02.489Z,79.05
2018-09-13T22:37:33.700Z,78.20
2018-09-13T22:40:04.590Z,78.37
2018-09-13T22:42:35.482Z,78.19
2018-09-13T22:45:06.292Z,78.07
2018-09-13T22:47:37.064Z,78.56
2018-09-13T22:50:07.938Z,78.92
2018-09-13T22:52:38.657Z,79.29
2018-09-13T22:55:09.438Z,79.36
2018-09-13T22:57:40.250Z,78.91
2018-09-13T23:00:11.016Z,78.20
2018-09-13T23:02:46.951Z,77.95
2018-09-13T23:05:18.940Z,78.04
2018-09-13T23:07:49.711Z,78.05
2018-09-13T23:10:20.478Z,77.77
2018-09-13T23:12:51.289Z,77.86
2018-09-13T23:15:22.075Z,78.08
2018-09-13T23:17:52.846Z,78.07
2018-09-13T23:20:23.763Z,77.75
2018-09-13T23:22:54.471Z,78.03
2018-09-13T23:25:25.306Z,78.17
2018-09-13T23:27:56.017Z,78.59
2018-09-13T23:30:27.278Z,78.83
2018-09-13T23:32:58.048Z,78.96
2018-09-13T23:35:28.896Z,78.90
2018-09-13T23:37:59.668Z,78.93
2018-09-13T23:40:30.524Z,78.86
2018-09-13T23:43:01.262Z,79.04
2018-09-13T23:45:32.044Z,78.82
2018-09-13T23:48:02.832Z,79.28
2018-09-13T23:50:33.594Z,79.56
2018-09-13T23:53:04.293Z,79.52
2018-09-13T23:55:35.073Z,79.30
2018-09-13T23:58:06.052Z,79.19
